Lake Fork, Illinois
Current Conditions -  °F | °C
As of 4:35 PM on Monday 22 Dec 2014 (Local Time) from KAAA Reporting Station
Light Rain Light Rain  
Wind Chill:   Ceiling: 600
Heat Index:   Visibility: 5mi
Dew Point:   Wind: 8mph
Humidity: 95%   Direction: 140°SE
Pressure: 29.6"   Gusts: NA
Location:  39.97°N, 89.35°W
Report Text: KAAA 222235Z AUTO 14007KT 5SM -RA OVC006 08/07 A2960 RMK AO2 T00750068
Loading
Personal Weather Stations






























Interactive Weather Map New forecast layout! Learn more

10-Day Weather Forecast

Advertisements
Track Severe Weather on mobile